• Join FlightAware (Why Join?)
  • Login
  • US Flag 
07:43PM EDT


 

Airport Tracker/Info


-or-


 

Live Flight TrackerFlight Track Log ✈ DAL1712 ✈ 07-Jul-2014 ✈ KMSP - KTPA

Flight Track Log - Related Links

Times and Time Zones

All times are in EDT time to prevent confusion due to time zone crossing. See the DAL1712 flight status page for this flight to view local times or setup timezone preferences in your user account.

Time Position Orientation Groundspeed Altitude Reporting Facility
EDT Latitude Longitude Course Direction KTS MPH feet Rate Location/Type
02:46PM 44.9000 -93.2500 180° South 179 206 1,800  Level Minneapolis TRACON
02:47PM 44.9000 -93.3167 270° West 227 261 3,000 1,800 Climbing Minneapolis TRACON
02:48PM 44.8508 -93.4111 234° Southwest 266 306 5,700 1,860 Climbing Minneapolis Center
02:49PM 44.7772 -93.4403 196° South 294 338 7,100 1,860 Climbing Minneapolis Center
02:50PM 44.3716 -92.9995 152° Southeast  Level FlightAware Approximate
02:50PM 44.6936 -93.4378 179° South 303 349 9,600  Level Minneapolis Center
02:51PM 44.2550 -92.9167 180° South  Level FlightAware Approximate
02:51PM 44.5889 -93.3936 163° South 362 417 11,400  Level Minneapolis Center
02:52PM 44.5061 -93.2903 138° Southeast 403 464 13,100 1,680 Climbing Minneapolis Center
02:53PM 44.4172 -93.1825 139° Southeast 424 488 14,900 1,680 Climbing Minneapolis Center
02:54PM 44.3233 -93.0706 140° Southeast 441 507 16,600 1,860 Climbing Minneapolis Center
02:55PM 44.2081 -92.9328 139° Southeast 453 521 18,800 1,680 Climbing Minneapolis Center
02:56PM 44.1069 -92.8192 141° Southeast 463 533 20,100 1,260 Climbing Minneapolis Center
02:57PM 43.9883 -92.7386 154° Southeast 471 542 21,500 1,140 Climbing Minneapolis Center
02:59PM 43.8669 -92.6561 154° Southeast 481 554 22,500 1,260 Climbing Minneapolis Center
03:00PM 43.7158 -92.5897 162° South 486 559 24,200 1,200 Climbing Minneapolis Center
03:01PM 43.5833 -92.5664 173° South 488 562 25,000 360 Climbing Chicago Center
03:02PM 43.4519 -92.5458 174° South 484 557 25,000  Level Chicago Center
03:03PM 43.3208 -92.5239 173° South 482 555 25,000  Level Chicago Center
03:04PM 43.1883 -92.5014 173° South 482 555 25,000  Level Chicago Center
03:05PM 43.0314 -92.4756 173° South 481 554 25,000  Level Chicago Center
03:06PM 42.9006 -92.4544 173° South 482 555 25,000  Level Chicago Center
03:07PM 42.7692 -92.4333 173° South 482 555 25,000  Level Chicago Center
03:08PM 42.6392 -92.4131 173° South 481 554 25,000  Level Chicago Center
03:09PM 42.4889 -92.3631 166° South 480 552 25,000  Level Minneapolis Center
03:10PM 42.3672 -92.2953 158° South 478 550 25,000  Level Chicago Center
03:11PM 42.2469 -92.2292 158° South 477 549 25,000  Level Chicago Center
03:12PM 42.1269 -92.1633 158° South 472 543 25,000  Level Chicago Center
03:13PM 42.0039 -92.0969 158° South 475 547 25,000  Level Chicago Center
03:14PM 41.8569 -92.0178 158° South 479 551 25,000  Level Chicago Center
03:15PM 41.7328 -91.9508 158° South 484 557 25,000  Level Chicago Center
03:16PM 41.6094 -91.8842 158° South 484 557 25,000  Level Chicago Center
03:17PM 41.4844 -91.8189 159° South 484 557 25,000  Level Chicago Center
03:18PM 41.3356 -91.7392 158° South 484 557 25,000  Level Chicago Center
03:19PM 41.2256 -91.6822 159° South 481 554 25,000  Level Chicago Center
03:20PM 41.1047 -91.6183 158° South 479 551 25,000  Level Chicago Center
03:21PM 40.9553 -91.5414 159° South 477 549 25,000  Level Chicago Center
03:22PM 40.8303 -91.4764 159° South 478 550 25,000  Level Chicago Center
03:23PM 40.7053 -91.4119 159° South 482 555 25,000  Level Chicago Center
03:24PM 40.5819 -91.3467 158° South 481 554 25,000  Level Chicago Center
03:25PM 40.4578 -91.2833 159° South 483 556 25,000  Level Kansas City Center
03:26PM 40.3353 -91.2200 158° South 482 555 25,000  Level Kansas City Center
03:27PM 40.2103 -91.1561 159° South 481 554 25,000  Level Kansas City Center
03:28PM 40.0822 -91.1181 167° South 478 550 25,000  Level Kansas City Center
03:29PM 39.9511 -91.0931 172° South 477 549 25,000  Level Kansas City Center
03:30PM 39.7947 -91.0617 171° South 477 549 25,000  Level Kansas City Center
03:32PM 39.6600 -91.0331 171° South 470 541 25,100 720 Climbing Kansas City Center
03:33PM 39.5275 -91.0117 173° South 473 544 26,500 1,080 Climbing Kansas City Center
03:34PM 39.3967 -90.9953 174° South 474 545 27,400 840 Climbing Kansas City Center
03:35PM 39.2644 -90.9769 174° South 474 545 28,300 840 Climbing Kansas City Center
03:36PM 39.1319 -90.9578 174° South 480 552 29,200 960 Climbing Kansas City Center
03:37PM 38.9997 -90.9392 174° South 480 552 30,300 840 Climbing Kansas City Center
03:38PM 38.8394 -90.9172 174° South 482 555 31,000 300 Climbing Kansas City Center
03:39PM 38.7036 -90.8989 174° South 489 563 31,000  Level Kansas City Center
03:40PM 38.5672 -90.8842 175° South 496 571 31,000  Level Kansas City Center
03:41PM 38.4325 -90.8711 176° South 496 571 31,000  Level Kansas City Center
03:42PM 38.3058 -90.7583 145° Southeast 492 566 31,000  Level Kansas City Center
03:43PM 38.2331 -90.6142 123° Southeast 488 562 31,000  Level Kansas City Center
03:44PM 38.1603 -90.4706 123° Southeast 488 562 31,000  Level Kansas City Center
03:45PM 38.0878 -90.3244 122° Southeast 490 564 31,000  Level Kansas City Center
03:46PM 38.0136 -90.1792 123° Southeast 492 566 31,000  Level Kansas City Center
03:47PM 37.9244 -90.0033 123° Southeast 486 559 31,000  Level Kansas City Center
03:48PM 37.8508 -89.8594 123° Southeast 486 559 31,000  Level Kansas City Center
03:49PM 37.7814 -89.7208 122° Southeast 485 558 31,000  Level Kansas City Center
03:50PM 37.7069 -89.5764 123° Southeast 486 559 31,000  Level Kansas City Center
03:51PM 37.6297 -89.4336 124° Southeast 492 566 31,000  Level Kansas City Center
03:52PM 37.5428 -89.2636 123° Southeast 487 560 31,000  Level Kansas City Center
03:53PM 37.4650 -89.1211 124° Southeast 485 558 31,000  Level Kansas City Center
03:54PM 37.3886 -88.9728 123° Southeast 492 566 31,000  Level Kansas City Center
03:55PM 37.3106 -88.8253 124° Southeast 498 573 31,000  Level Memphis Center
03:56PM 37.2317 -88.6778 124° Southeast 500 575 31,000  Level Memphis Center
03:57PM 37.1539 -88.5311 124° Southeast 502 578 31,000  Level Memphis Center
03:58PM 37.0775 -88.3883 124° Southeast 498 573 31,000  Level Memphis Center
03:59PM 36.9997 -88.2442 124° Southeast 498 573 31,000  Level Memphis Center
04:00PM 36.9189 -88.0933 124° Southeast 496 571 31,000  Level Memphis Center
04:01PM 36.8414 -87.9506 124° Southeast 495 570 31,000  Level Memphis Center
04:02PM 36.7647 -87.8094 124° Southeast 493 567 31,000  Level Memphis Center
04:03PM 36.6744 -87.6453 124° Southeast 490 564 31,000  Level Memphis Center
04:05PM 36.5975 -87.5039 124° Southeast 490 564 31,000  Level Memphis Center
04:06PM 36.5200 -87.3647 125° Southeast 488 562 31,000  Level Memphis Center
04:07PM 36.4433 -87.2256 124° Southeast 488 562 31,000  Level Memphis Center
04:08PM 36.3669 -87.0892 125° Southeast 486 559 31,000  Level Memphis Center
04:09PM 36.2892 -86.9503 125° Southeast 485 558 31,000  Level Memphis Center
04:10PM 36.2008 -86.7956 125° Southeast 488 562 31,000  Level Memphis Center
04:11PM 36.1136 -86.6719 131° Southeast 487 560 31,000  Level Memphis Center
04:12PM 35.9875 -86.6053 157° South 491 565 31,000  Level Memphis Center
04:13PM 35.8611 -86.5419 158° South 489 563 31,000  Level Memphis Center
04:14PM 35.7353 -86.4811 159° South 487 560 31,000  Level Memphis Center
04:15PM 35.6100 -86.4181 158° South 485 558 31,000  Level Memphis Center
04:16PM 35.4639 -86.3461 158° South 482 555 31,000  Level Memphis Center
04:17PM 35.3389 -86.2856 158° South 481 554 31,000  Level Memphis Center
04:18PM 35.2131 -86.2261 159° South 481 554 31,000  Level Memphis Center
04:19PM 35.0878 -86.1650 158° South 481 554 31,000  Level Memphis Center
04:20PM 34.9633 -86.1042 158° South 481 554 31,000  Level Memphis Center
04:21PM 34.8392 -86.0447 159° South 481 554 31,000  Level Memphis Center
04:22PM 34.7122 -85.9844 159° South 479 551 31,000  Level Memphis Center
04:23PM 34.5856 -85.9186 157° South 483 556 31,000  Level Atlanta Center
04:24PM 34.4569 -85.8603 159° South 483 556 31,000  Level Atlanta Center
04:25PM 34.3492 -85.8125 160° South 483 556 31,000  Level Atlanta Center
04:26PM 34.2228 -85.7547 159° South 477 549 31,000  Level Atlanta Center
04:27PM 34.0983 -85.6944 158° South 483 556 31,000  Level Atlanta Center
04:28PM 33.9758 -85.6369 159° South 483 556 31,000  Level Atlanta Center
04:29PM 33.8494 -85.5797 159° South 483 556 31,000  Level Atlanta Center
04:30PM 33.7247 -85.5200 158° South 483 556 31,000  Level Atlanta Center
04:31PM 33.6003 -85.4631 159° South 483 556 31,000  Level Atlanta Center
04:32PM 33.4758 -85.4036 158° South 483 556 31,000  Level Atlanta Center
04:33PM 33.3469 -85.3469 160° South 489 563 31,000  Level Atlanta Center
04:34PM 33.2244 -85.2881 158° South 484 557 31,000  Level Atlanta Center
04:35PM 33.0997 -85.2317 159° South 479 551 31,000  Level Atlanta Center
04:36PM 32.9625 -85.1728 160° South 479 551 31,000  Level Atlanta Center
04:37PM 32.8439 -85.1367 166° South 479 551 31,000  Level Atlanta Center
04:38PM 32.7003 -85.0831 163° South 479 551 31,000  Level Atlanta Center
04:39PM 32.5711 -85.0394 164° South 479 551 31,000  Level Atlanta Center
04:40PM 32.4422 -84.9961 164° South 478 550 31,000  Level Atlanta Center
04:41PM 32.3192 -84.9556 164° South 478 550 31,000  Level Atlanta Center
04:42PM 32.1986 -84.9200 166° South 478 550 31,000  Level Atlanta Center
04:43PM 32.0694 -84.8747 163° South 478 550 31,000  Level Atlanta Center
04:45PM 31.8536 -84.8003 164° South 478 550 31,000  Level Jacksonville Center
04:46PM 31.7247 -84.7586 165° South 472 543 31,000  Level Jacksonville Center
04:47PM 31.6000 -84.7169 164° South 472 543 31,000  Level Jacksonville Center
04:48PM 31.4756 -84.6756 164° South 466 536 31,000  Level Jacksonville Center
04:49PM 31.3633 -84.6369 164° South 472 543 31,000  Level Jacksonville Center
04:50PM 31.2386 -84.5958 164° South 472 543 31,000  Level Jacksonville Center
04:51PM 31.1139 -84.5547 164° South 472 543 31,000  Level Jacksonville Center
04:52PM 30.9911 -84.5139 164° South 472 543 31,000  Level Jacksonville Center
04:53PM 30.8664 -84.4731 164° South 472 543 31,000  Level Jacksonville Center
04:54PM 30.7394 -84.4297 164° South 472 543 31,000  Level Jacksonville Center
04:55PM 30.6169 -84.3892 164° South 472 543 31,000  Level Jacksonville Center
04:56PM 30.4986 -84.3342 158° South 472 543 31,000  Level Jacksonville Center
04:57PM 30.3844 -84.2603 151° Southeast 467 537 31,000 -60 Level Jacksonville Center
04:58PM 30.2725 -84.1867 150° Southeast 462 532 30,900  Descending Jacksonville Center
04:59PM 30.1625 -84.1131 150° Southeast 462 532 31,000  Climbing Jacksonville Center
05:00PM 30.0506 -84.0419 151° Southeast 462 532 31,000 -60 Level Jacksonville Center
05:01PM 29.9364 -83.9711 152° Southeast 462 532 30,900  Descending Jacksonville Center
05:02PM 29.8117 -83.8883 150° Southeast 457 526 31,000  Climbing Jacksonville Center
05:03PM 29.6908 -83.8633 170° South 442 509 31,000  Level Jacksonville Center
05:04PM 29.5756 -83.9050 197° South 423 487 31,000 -60 Level Jacksonville Center
05:05PM 29.4525 -83.9086 181° South 423 487 30,900  Descending Jacksonville Center
05:06PM 29.3361 -83.8478 156° South 429 494 31,000 -900 Climbing Jacksonville Center
05:07PM 29.2450 -83.7494 137° Southeast 429 494 29,100 -2,100 Descending Jacksonville Center
05:08PM 29.1514 -83.6558 139° Southeast 435 501 26,900 -2,040 Descending Jacksonville Center
05:09PM 29.0561 -83.5694 142° Southeast 443 510 25,100 -1,980 Descending Jacksonville Center
05:10PM 28.9644 -83.4883 142° Southeast 438 504 23,000 -1,080 Descending Jacksonville Center
05:11PM 28.8794 -83.4094 141° Southeast 426 490 23,000 -840 Level Jacksonville Center
05:12PM 28.7939 -83.3333 142° Southeast 406 467 21,400 -1,800 Descending Jacksonville Center
05:13PM 28.6667 -83.2161 141° Southeast 374 430 18,400 -1,860 Descending Miami Center
05:14PM 28.5878 -83.1472 143° Southeast 366 421 16,600 -1,800 Descending Miami Center
05:15PM 28.5000 -83.0833 147° Southeast 348 400 14,800 -1,740 Descending Tampa TRACON
05:16PM 28.4333 -83.0000 132° Southeast 335 386 12,900 -1,620 Descending Tampa TRACON
05:17PM 28.3500 -82.9500 152° Southeast 314 361 11,500 -1,560 Descending Tampa TRACON
05:18PM 28.3333 -82.8500 101° East 305 351 9,800 -1,740 Descending Tampa TRACON
05:19PM 28.3167 -82.7667 103° East 300 345 8,100 -1,380 Descending Tampa TRACON
05:20PM 28.2833 -82.6667 111° Southeast 290 334 7,000 -1,200 Descending Tampa TRACON
05:21PM 28.2667 -82.5667 101° East 281 323 5,600 -1,440 Descending Tampa TRACON
05:22PM 28.2000 -82.5500 168° South 251 289 4,200 -1,320 Descending Tampa TRACON
05:23PM 28.1500 -82.5333 164° South 208 239 3,300 -1,140 Descending Tampa TRACON
05:24PM 28.1000 -82.5333 180° South 171 197 2,100 -1,020 Descending Tampa TRACON
05:25PM 28.0500 -82.5333 180° South 165 190 1,100 -840 Descending Tampa TRACON
05:26PM 28.0000 -82.5333 180° South 141 162 400 -720 Descending Tampa TRACON